createdAt,value
2022-11-22T00:02:22.038Z,93.89
2022-11-22T00:04:48.657Z,93.78
2022-11-22T00:07:15.351Z,93.78
2022-11-22T00:09:42.161Z,93.44
2022-11-22T00:12:08.814Z,93.47
2022-11-22T00:14:35.534Z,93.54
2022-11-22T00:17:02.181Z,93.24
2022-11-22T00:19:28.913Z,93.30
2022-11-22T00:21:55.676Z,93.31
2022-11-22T00:24:22.267Z,93.00
2022-11-22T00:26:48.886Z,93.43
2022-11-22T00:29:16.097Z,93.01
2022-11-22T00:31:42.725Z,93.03
2022-11-22T00:34:09.401Z,92.88
2022-11-22T00:36:36.390Z,92.96
2022-11-22T00:39:03.144Z,92.82
2022-11-22T00:41:29.775Z,92.62
2022-11-22T00:43:56.386Z,92.52
2022-11-22T00:46:23.065Z,92.20
2022-11-22T00:48:49.876Z,92.19
2022-11-22T00:51:16.651Z,92.03
2022-11-22T00:53:43.307Z,91.93
2022-11-22T00:56:09.951Z,91.71
2022-11-22T00:58:36.590Z,91.89
2022-11-22T01:01:03.302Z,91.92
2022-11-22T01:03:30.045Z,91.65
2022-11-22T01:05:56.675Z,91.47
2022-11-22T01:08:23.367Z,91.29
2022-11-22T01:10:56.080Z,91.29
2022-11-22T01:13:22.798Z,91.31
2022-11-22T01:15:49.462Z,91.09
2022-11-22T01:18:16.150Z,91.07
2022-11-22T01:20:43.004Z,90.75
2022-11-22T01:23:09.658Z,90.21
2022-11-22T01:25:36.340Z,90.52
2022-11-22T01:28:02.952Z,90.38
2022-11-22T01:30:29.551Z,90.51
2022-11-22T01:32:56.167Z,90.51
2022-11-22T01:35:22.771Z,90.46
2022-11-22T01:37:49.475Z,90.11
2022-11-22T01:40:16.484Z,90.44
2022-11-22T01:42:56.709Z,90.27
2022-11-22T01:45:29.440Z,89.94
2022-11-22T01:48:02.111Z,89.82
2022-11-22T01:50:29.708Z,90.05
2022-11-22T01:52:56.509Z,90.19
2022-11-22T01:55:23.244Z,90.29
2022-11-22T01:57:50.730Z,90.47
2022-11-22T02:00:17.616Z,90.45
2022-11-22T02:02:46.471Z,90.21
2022-11-22T02:05:15.314Z,90.32
2022-11-22T02:07:45.553Z,90.27
2022-11-22T02:10:12.317Z,90.21
2022-11-22T02:12:38.922Z,90.00
2022-11-22T02:15:07.229Z,90.36
2022-11-22T02:17:34.259Z,90.38
2022-11-22T02:20:00.914Z,90.42
2022-11-22T02:22:45.947Z,90.75
2022-11-22T02:25:41.899Z,90.68
2022-11-22T02:28:09.112Z,90.67
2022-11-22T02:30:36.615Z,90.78
2022-11-22T02:33:03.867Z,90.60
2022-11-22T02:35:30.606Z,90.28
2022-11-22T02:38:08.808Z,90.44
2022-11-22T02:40:42.438Z,90.48
2022-11-22T02:43:11.653Z,90.17
2022-11-22T02:45:38.337Z,90.02
2022-11-22T02:51:26.606Z,89.93
2022-11-22T02:53:53.815Z,90.20
2022-11-22T02:56:20.443Z,90.09
2022-11-22T02:58:47.080Z,90.22
2022-11-22T03:01:14.022Z,90.03
2022-11-22T03:06:33.774Z,90.07
2022-11-22T11:45:28.922Z,91.88
2022-11-22T11:47:55.714Z,91.62
2022-11-22T11:50:24.953Z,91.62
2022-11-22T11:52:55.957Z,91.43
2022-11-22T11:55:22.722Z,91.18
2022-11-22T11:57:49.770Z,90.81
2022-11-22T12:00:22.356Z,90.56
2022-11-22T12:02:52.081Z,90.26
2022-11-22T12:05:18.772Z,89.81
2022-11-22T12:07:46.399Z,89.28
2022-11-22T12:10:50.056Z,88.70
2022-11-22T12:13:35.314Z,88.46
2022-11-22T12:16:19.164Z,88.05
2022-11-22T12:18:57.890Z,87.97
2022-11-22T12:21:36.687Z,87.54
2022-11-22T12:26:57.643Z,87.24
2022-11-22T12:29:24.335Z,87.00
2022-11-22T12:31:55.570Z,86.94
2022-11-22T12:34:36.628Z,86.34
2022-11-22T12:37:16.711Z,86.08
2022-11-22T12:39:47.244Z,86.31
2022-11-22T12:42:21.596Z,85.59
2022-11-22T12:44:53.150Z,85.63
2022-11-22T12:47:22.100Z,85.10
2022-11-22T12:48:23.810Z,87.53
2022-11-22T12:49:54.105Z,85.40
2022-11-22T12:52:39.641Z,85.38
2022-11-22T12:55:17.733Z,85.45
2022-11-22T12:58:03.281Z,85.23
2022-11-22T13:00:32.381Z,85.39
2022-11-22T13:03:22.276Z,85.47
2022-11-22T13:05:54.516Z,85.33
2022-11-22T13:08:41.460Z,84.94
2022-11-22T13:11:14.118Z,85.34
2022-11-22T13:13:52.396Z,85.09
2022-11-22T13:16:19.009Z,85.19
2022-11-22T13:18:48.263Z,84.92
2022-11-22T13:21:17.960Z,85.03
2022-11-22T13:23:56.103Z,84.82
2022-11-22T13:26:55.818Z,84.75
2022-11-22T13:29:24.308Z,84.38
2022-11-22T13:32:12.969Z,84.47
2022-11-22T13:34:41.749Z,84.44
2022-11-22T13:37:11.776Z,84.18
2022-11-22T13:44:51.208Z,84.45
2022-11-22T13:47:24.364Z,84.37
2022-11-22T13:49:51.749Z,84.38
2022-11-22T13:52:19.624Z,84.61
2022-11-22T13:54:46.346Z,84.87
2022-11-22T13:57:31.358Z,84.59
2022-11-22T14:00:13.916Z,84.58
2022-11-22T14:02:53.475Z,84.76
2022-11-22T14:05:36.599Z,84.38
2022-11-22T14:08:49.172Z,84.56
2022-11-22T14:11:36.456Z,84.45
2022-11-22T14:14:08.001Z,84.42
2022-11-22T14:16:40.727Z,84.63
2022-11-22T14:19:31.933Z,84.59
2022-11-22T14:22:05.846Z,84.64
2022-11-22T14:24:39.115Z,84.63
2022-11-22T14:27:43.677Z,84.62
2022-11-22T14:30:23.742Z,84.76
2022-11-22T14:33:15.307Z,84.68
2022-11-22T14:36:07.005Z,84.80
2022-11-22T14:42:35.974Z,84.96
2022-11-22T14:45:11.855Z,84.99
2022-11-22T14:47:53.766Z,85.15
2022-11-22T14:50:39.124Z,85.10
2022-11-22T14:53:32.207Z,85.27
2022-11-22T14:56:20.446Z,85.17
2022-11-22T14:59:06.332Z,85.05
2022-11-22T15:01:39.862Z,85.22
2022-11-22T15:09:12.791Z,85.09
2022-11-22T15:09:20.685Z,85.27
2022-11-22T15:10:43.732Z,85.02
2022-11-22T15:13:33.594Z,84.92
2022-11-22T15:59:36.474Z,85.25
2022-11-22T16:02:03.184Z,85.15
2022-11-22T16:04:32.000Z,84.88
2022-11-22T16:07:00.700Z,84.91
2022-11-22T16:09:36.985Z,84.89
2022-11-22T16:12:30.408Z,84.80
2022-11-22T16:14:57.193Z,85.15
2022-11-22T16:17:32.251Z,85.17
2022-11-22T16:20:30.980Z,85.49
2022-11-22T16:23:09.904Z,85.51
2022-11-22T16:25:38.152Z,85.49
2022-11-22T16:28:29.255Z,85.66
2022-11-22T16:31:24.010Z,85.88
2022-11-22T16:33:51.700Z,86.04
2022-11-22T16:36:19.476Z,85.72
2022-11-22T16:38:46.288Z,85.98
2022-11-22T16:41:24.668Z,85.86
2022-11-22T16:44:01.922Z,85.84
2022-11-22T16:46:28.666Z,85.65
2022-11-22T16:48:55.718Z,85.59
2022-11-22T16:51:28.538Z,85.53
2022-11-22T16:53:58.834Z,85.79
2022-11-22T16:56:29.661Z,85.37
2022-11-22T16:58:57.082Z,85.49
2022-11-22T17:01:30.965Z,85.40
2022-11-22T17:03:57.973Z,85.53
2022-11-22T17:06:28.955Z,85.30
2022-11-22T17:08:56.776Z,85.08
2022-11-22T17:11:25.260Z,85.13
2022-11-22T17:13:51.919Z,85.48
2022-11-22T17:16:18.576Z,85.33
2022-11-22T17:18:46.319Z,85.14
2022-11-22T17:21:37.778Z,85.19
2022-11-22T17:24:06.610Z,85.26
2022-11-22T17:26:34.724Z,85.37
2022-11-22T17:29:01.595Z,85.34
2022-11-22T17:31:28.304Z,85.29
2022-11-22T17:33:56.400Z,85.58
2022-11-22T17:36:32.778Z,85.60
2022-11-22T17:39:00.428Z,85.48
2022-11-22T17:41:27.243Z,85.38
2022-11-22T17:43:54.109Z,85.43
2022-11-22T17:46:20.777Z,85.26
2022-11-22T17:48:52.852Z,85.53
2022-11-22T17:51:19.545Z,85.24
2022-11-22T17:53:46.279Z,85.47
2022-11-22T23:40:39.360Z,95.62
2022-11-22T23:43:06.096Z,95.48
2022-11-22T23:45:32.704Z,95.30
2022-11-22T23:47:59.415Z,95.15
2022-11-22T23:50:26.083Z,94.94
2022-11-22T23:52:56.950Z,94.71
2022-11-22T23:55:23.966Z,94.40
2022-11-22T23:57:50.637Z,94.21
